Donnes mto: Actuelle lundi, 18/02/2019 23:40
Date Horaire Temp. E. Hum. E. P.atmo. Pluie Vent Direction Direction Ensoleilleme Solaire P. de rose Temp au vent Rafales
18/02/2019 23:40 6,3 C 70 % 1021,0 hPa 0,0 l/m 0,1 km/h (0 Bft) S 169 0 min 0 W/m 1,2 C 6,3 C 1,6 km/h (1 Bft)
18/02/2019 22:40 6,7 C 66 % 1020,7 hPa 0,0 l/m 0,0 km/h (0 Bft) S 169 0 min 0 W/m 0,8 C 6,7 C 0,0 km/h (0 Bft)
18/02/2019 21:40 4,8 C 74 % 1020,6 hPa 0,0 l/m 0,0 km/h (0 Bft) S-SE 168 0 min 0 W/m 0,6 C 4,8 C 0,0 km/h (0 Bft)
18/02/2019 20:40 5,4 C 71 % 1020,6 hPa 0,0 l/m 0,0 km/h (0 Bft) S-SE 168 0 min 0 W/m 0,6 C 5,4 C 0,0 km/h (0 Bft)
18/02/2019 19:40 6,4 C 67 % 1020,3 hPa 0,0 l/m 0,0 km/h (0 Bft) O 263 0 min 0 W/m 0,7 C 6,4 C 0,0 km/h (0 Bft)
18/02/2019 18:40 9,3 C 54 % 1019,9 hPa 0,0 l/m 0,0 km/h (0 Bft) O 263 0 min 0 W/m 0,5 C 9,3 C 0,0 km/h (0 Bft)
18/02/2019 17:40 13,1 C 44 % 1019,4 hPa 0,0 l/m 0,9 km/h (0 Bft) O 263 0 min 28 W/m 1,1 C 13,1 C 8,0 km/h (2 Bft)
18/02/2019 16:40 13,3 C 43 % 1019,5 hPa 0,0 l/m 5,4 km/h (1 Bft) O 275 50 min 178 W/m 1,0 C 13,3 C 11,3 km/h (2 Bft)
18/02/2019 15:40 13,4 C 45 % 1019,6 hPa 0,0 l/m 8,4 km/h (2 Bft) O 281 60 min 320 W/m 1,7 C 12,2 C 16,1 km/h (3 Bft)
18/02/2019 14:40 13,1 C 46 % 1019,8 hPa 0,0 l/m 7,7 km/h (2 Bft) O 266 60 min 441 W/m 1,7 C 12,3 C 14,5 km/h (3 Bft)
18/02/2019 13:40 12,5 C 46 % 1020,6 hPa 0,0 l/m 13,8 km/h (3 Bft) SO 229 60 min 508 W/m 1,2 C 8,6 C 22,5 km/h (4 Bft)
18/02/2019 12:40 12,3 C 56 % 1021,2 hPa 0,0 l/m 3,9 km/h (1 Bft) O-SO 256 60 min 526 W/m 3,8 C 12,3 C 9,7 km/h (2 Bft)
18/02/2019 11:40 10,8 C 64 % 1021,8 hPa 0,0 l/m 7,4 km/h (2 Bft) O-SO 245 30 min 485 W/m 4,3 C 10,1 C 11,3 km/h (2 Bft)
18/02/2019 10:40 8,1 C 69 % 1022,0 hPa 0,0 l/m 4,4 km/h (1 Bft) SO 236 20 min 33 W/m 2,8 C 8,1 C 6,4 km/h (2 Bft)
18/02/2019 09:40 4,5 C 80 % 1022,0 hPa 0,0 l/m 0,0 km/h (0 Bft) O 279 10 min 63 W/m 1,4 C 4,5 C 0,0 km/h (0 Bft)
18/02/2019 08:40 1,5 C 79 % 1022,4 hPa 0,0 l/m 0,0 km/h (0 Bft) S-SE 150 0 min 21 W/m -1,7 C 1,5 C 0,0 km/h (0 Bft)
18/02/2019 06:15 4,0 C 78 % 1022,6 hPa 0,0 l/m 0,0 km/h (0 Bft) SE 135 0 min 0 W/m 0,5 C 4,0 C 3,2 km/h (1 Bft)
18/02/2019 03:15 2,5 C 77 % 1023,5 hPa 0,0 l/m 0,0 km/h (0 Bft) N 0 0 min 0 W/m -1,1 C 2,5 C 0,0 km/h (0 Bft)
18/02/2019 00:15 3,2 C 77 % 1023,3 hPa 0,0 l/m 0,0 km/h (0 Bft) N 0 0 min 0 W/m -0,4 C 3,2 C 0,0 km/h (0 Bft)
18/02/2019 00:00 3,6 C 74 % 1023,4 hPa 0,0 l/m 0,0 km/h (0 Bft) N 0 0 min 0 W/m -0,6 C 3,6 C 0,0 km/h (0 Bft)
_ Min-Heure 08:15 13:15 17:00 - 00:00 - - - - 08:30 08:15 00:00
Minimum _ 1,0 C 42 % 1019,4 hPa - 0,0 km/h (0 Bft) - - - - -2,0 C 1,0 C 0,0 km/h (0 Bft)
_ Max-Heure 16:10 08:15 01:45 00:00 13:40 - - 09:20 12:55 12:10 16:10 13:10
Maximum _ 13,7 C 82 % 1023,6 hPa 0,0 l/m 13,8 km/h
SO (3 Bft)
- - 5 min 529 W/m 4,8 C 13,7 C 22,5 km/h
S-SO (4 Bft)
Moyenne _ 7,2 C 66 % 1021,5 hPa #0,0 l/m 2,3 km/h (1 Bft) O-SO - #5:50 h 252 W/m 0,9 C 6,9 C 5,2 km/h (1 Bft)